createdAt,value
2023-09-01T00:02:07.987Z,0.68
2023-09-01T00:04:34.401Z,0.75
2023-09-01T00:07:01.255Z,0.85
2023-09-01T00:09:28.106Z,0.73
2023-09-01T00:11:54.544Z,0.70
2023-09-01T00:14:21.008Z,0.80
2023-09-01T00:16:47.494Z,0.73
2023-09-01T00:19:13.933Z,0.65
2023-09-01T00:21:40.990Z,0.80
2023-09-01T00:24:08.175Z,0.90
2023-09-01T00:26:34.639Z,0.80
2023-09-01T00:29:01.039Z,0.75
2023-09-01T00:31:27.545Z,0.82
2023-09-01T00:33:54.007Z,0.80
2023-09-01T00:36:20.468Z,0.90
2023-09-01T00:38:46.935Z,0.80
2023-09-01T00:41:13.341Z,0.82
2023-09-01T00:43:39.800Z,0.90
2023-09-01T00:46:06.407Z,0.85
2023-09-01T00:48:33.362Z,0.80
2023-09-01T00:51:00.137Z,0.90
2023-09-01T00:53:27.141Z,0.60
2023-09-01T00:55:56.141Z,0.90
2023-09-01T00:58:22.785Z,0.80
2023-09-01T01:03:33.321Z,0.77
2023-09-01T01:06:42.920Z,0.70
2023-09-01T01:09:16.830Z,0.80
2023-09-01T01:11:52.402Z,0.98
2023-09-01T01:14:41.942Z,0.80
2023-09-01T01:17:09.871Z,0.82
2023-09-01T01:19:42.985Z,0.90
2023-09-01T01:22:09.674Z,0.70
2023-09-01T01:24:36.994Z,0.90
2023-09-01T01:27:03.641Z,0.80
2023-09-01T01:29:30.053Z,0.75
2023-09-01T01:31:58.749Z,0.93
2023-09-01T01:34:38.853Z,0.80
2023-09-01T01:37:31.097Z,0.70
2023-09-01T01:40:01.039Z,0.90
2023-09-01T01:42:30.694Z,0.95
2023-09-01T01:44:58.962Z,0.70
2023-09-01T01:47:26.105Z,1.00
2023-09-01T01:49:52.571Z,0.85
2023-09-01T01:52:19.095Z,0.70
2023-09-01T01:54:45.490Z,0.90
2023-09-01T01:57:15.480Z,0.75
2023-09-01T01:59:42.907Z,0.98
2023-09-01T02:02:09.439Z,0.80
2023-09-01T02:04:36.683Z,0.80
2023-09-01T02:07:06.589Z,0.82
2023-09-01T02:09:34.208Z,0.82
2023-09-01T02:12:00.727Z,0.70
2023-09-01T02:14:27.171Z,0.80
2023-09-01T02:16:54.032Z,0.88
2023-09-01T02:19:20.603Z,0.80
2023-09-01T02:21:47.075Z,0.85
2023-09-01T02:24:13.629Z,1.00
2023-09-01T02:26:40.144Z,0.85
2023-09-01T02:29:06.696Z,0.70
2023-09-01T02:31:33.254Z,0.93
2023-09-01T02:33:59.697Z,0.80
2023-09-01T02:36:31.388Z,0.85
2023-09-01T02:38:58.749Z,0.80
2023-09-01T02:41:26.417Z,0.80
2023-09-01T02:43:54.348Z,0.93
2023-09-01T02:46:21.429Z,0.95
2023-09-01T02:48:48.172Z,0.68
2023-09-01T02:51:14.632Z,0.85
2023-09-01T02:53:41.034Z,0.88
2023-09-01T02:56:08.727Z,0.88
2023-09-01T02:58:36.405Z,1.00
2023-09-01T03:01:10.324Z,0.80
2023-09-01T03:03:39.109Z,0.80
2023-09-01T03:06:11.952Z,1.05
2023-09-01T03:08:39.576Z,0.90
2023-09-01T03:11:06.655Z,0.85
2023-09-01T03:13:33.251Z,0.93
2023-09-01T03:15:59.782Z,0.85
2023-09-01T03:18:26.381Z,0.80
2023-09-01T03:20:56.611Z,0.90
2023-09-01T03:23:23.282Z,0.80
2023-09-01T03:25:58.993Z,0.70
2023-09-01T03:28:25.436Z,1.00
2023-09-01T03:30:51.948Z,0.90
2023-09-01T03:33:19.255Z,0.80
2023-09-01T03:35:45.660Z,1.00
2023-09-01T03:38:12.671Z,0.80
2023-09-01T03:40:39.419Z,0.90
2023-09-01T03:43:08.676Z,1.15
2023-09-01T03:45:35.306Z,0.93
2023-09-01T03:48:02.171Z,1.00
2023-09-01T03:50:28.736Z,0.73
2023-09-01T03:52:55.163Z,0.90
2023-09-01T03:55:21.667Z,0.93
2023-09-01T03:57:48.094Z,1.13
2023-09-01T04:00:15.114Z,0.70
2023-09-01T04:02:41.711Z,0.70
2023-09-01T04:05:08.271Z,1.00
2023-09-01T04:07:34.625Z,0.90
2023-09-01T04:10:03.940Z,0.95
2023-09-01T04:12:31.473Z,1.00
2023-09-01T04:14:57.888Z,1.00
2023-09-01T04:17:24.271Z,1.00
2023-09-01T04:19:50.724Z,1.00
2023-09-01T04:22:17.109Z,0.80
2023-09-01T04:24:44.257Z,0.75
2023-09-01T04:27:10.811Z,0.90
2023-09-01T04:29:39.551Z,1.00
2023-09-01T04:32:06.128Z,0.73
2023-09-01T04:34:33.795Z,1.00
2023-09-01T04:37:00.248Z,0.90
2023-09-01T04:39:26.871Z,0.90
2023-09-01T04:41:53.249Z,0.98
2023-09-01T04:44:19.710Z,0.80
2023-09-01T04:46:46.139Z,0.90
2023-09-01T04:49:12.558Z,0.80
2023-09-01T04:51:39.068Z,0.70
2023-09-01T04:54:05.647Z,1.20
2023-09-01T04:56:33.920Z,0.90
2023-09-01T04:59:00.351Z,0.93
2023-09-01T05:01:26.876Z,1.00
2023-09-01T05:03:53.360Z,1.02
2023-09-01T05:06:19.866Z,1.13
2023-09-01T05:08:46.277Z,0.77
2023-09-01T05:11:12.744Z,1.10
2023-09-01T05:13:39.250Z,0.95
2023-09-01T05:16:08.446Z,1.10
2023-09-01T05:18:34.884Z,1.25
2023-09-01T05:21:01.344Z,0.90
2023-09-01T05:23:32.286Z,0.88
2023-09-01T05:25:58.815Z,1.00
2023-09-01T05:28:25.260Z,0.90
2023-09-01T05:30:51.694Z,0.90
2023-09-01T05:33:18.218Z,0.88
2023-09-01T05:35:44.669Z,1.00
2023-09-01T05:38:11.193Z,1.13
2023-09-01T05:40:38.801Z,0.85
2023-09-01T05:43:05.339Z,1.00
2023-09-01T05:45:31.794Z,0.90
2023-09-01T05:47:58.300Z,0.95
2023-09-01T05:50:24.749Z,1.10
2023-09-01T05:52:51.214Z,1.20
2023-09-01T05:55:18.079Z,1.00
2023-09-01T05:57:44.502Z,1.10
2023-09-01T06:00:11.400Z,1.00
2023-09-01T06:02:37.982Z,1.10
2023-09-01T06:05:06.200Z,0.90
2023-09-01T06:07:32.653Z,1.00
2023-09-01T06:09:59.784Z,1.25
2023-09-01T06:12:26.369Z,0.95
2023-09-01T06:14:52.856Z,1.20
2023-09-01T06:17:20.927Z,1.10
2023-09-01T06:19:50.996Z,1.13
2023-09-01T06:22:17.542Z,1.48
2023-09-01T06:24:43.955Z,1.25
2023-09-01T06:27:10.478Z,1.10
2023-09-01T06:29:36.946Z,1.30
2023-09-01T06:32:04.089Z,1.00
2023-09-01T06:34:30.579Z,1.20
2023-09-01T06:36:57.737Z,1.15
2023-09-01T06:39:24.101Z,0.93
2023-09-01T06:41:50.495Z,1.52
2023-09-01T06:44:16.997Z,1.02
2023-09-01T06:46:43.531Z,1.27
2023-09-01T06:49:09.955Z,0.90
2023-09-01T06:51:36.376Z,1.10
2023-09-01T06:54:02.897Z,1.33
2023-09-01T06:56:29.481Z,1.08
2023-09-01T06:58:55.988Z,1.23
2023-09-01T07:01:22.808Z,1.30
2023-09-01T07:03:49.603Z,1.30
2023-09-01T07:06:16.112Z,1.13
2023-09-01T07:08:42.668Z,1.00
2023-09-01T07:11:13.732Z,1.15
2023-09-01T07:13:40.253Z,1.25
2023-09-01T07:16:07.804Z,1.33
2023-09-01T07:18:34.823Z,1.30
2023-09-01T07:21:01.791Z,1.10
2023-09-01T07:23:28.869Z,1.15
2023-09-01T07:25:56.291Z,0.98
2023-09-01T07:28:23.638Z,1.30
2023-09-01T07:30:50.179Z,1.05
2023-09-01T07:33:17.387Z,1.10
2023-09-01T07:35:50.882Z,1.23
2023-09-01T07:38:18.148Z,1.33
2023-09-01T07:40:45.459Z,1.30
2023-09-01T07:43:12.161Z,1.17
2023-09-01T07:45:40.645Z,1.15
2023-09-01T07:48:20.455Z,1.38
2023-09-01T07:50:48.016Z,1.38
2023-09-01T07:53:14.450Z,1.40
2023-09-01T07:55:40.926Z,1.38
2023-09-01T07:58:07.360Z,1.40
2023-09-01T08:00:33.921Z,1.20
2023-09-01T08:03:00.514Z,1.45
2023-09-01T08:05:27.000Z,1.13
2023-09-01T08:07:54.452Z,1.40
2023-09-01T08:10:21.162Z,1.50
2023-09-01T08:12:47.763Z,1.42
2023-09-01T08:15:14.209Z,1.10
2023-09-01T08:17:40.763Z,1.40
2023-09-01T08:20:08.126Z,1.10
2023-09-01T08:22:34.564Z,1.77
2023-09-01T08:25:01.052Z,1.08
2023-09-01T08:27:28.957Z,1.20
2023-09-01T08:29:57.431Z,0.90
2023-09-01T08:32:23.894Z,1.20
2023-09-01T08:34:50.309Z,1.40
2023-09-01T08:37:18.156Z,1.35
2023-09-01T08:39:44.998Z,1.33
2023-09-01T08:42:12.957Z,1.40
2023-09-01T08:44:41.462Z,1.52
2023-09-01T08:47:10.202Z,1.20
2023-09-01T08:49:36.739Z,1.35
2023-09-01T08:52:04.271Z,1.83
2023-09-01T08:54:31.652Z,1.25
2023-09-01T08:56:58.075Z,1.20
2023-09-01T08:59:26.170Z,1.50
2023-09-01T09:01:52.661Z,1.33
2023-09-01T09:04:19.175Z,1.25
2023-09-01T09:06:46.647Z,1.27
2023-09-01T09:09:15.890Z,1.13
2023-09-01T09:11:56.841Z,1.20
2023-09-01T09:14:23.604Z,1.25
2023-09-01T09:16:55.194Z,1.20
2023-09-01T09:19:22.525Z,1.20
2023-09-01T09:21:49.390Z,1.40
2023-09-01T09:24:33.623Z,1.13
2023-09-01T09:27:00.168Z,1.35
2023-09-01T09:29:26.745Z,1.33
2023-09-01T09:31:53.497Z,1.35
2023-09-01T09:34:26.750Z,1.30
2023-09-01T09:36:53.330Z,1.30
2023-09-01T09:39:24.905Z,1.30
2023-09-01T09:41:51.919Z,1.30
2023-09-01T09:44:27.327Z,1.40
2023-09-01T09:46:55.527Z,1.33
2023-09-01T09:49:23.316Z,1.60
2023-09-01T09:51:52.953Z,1.40
2023-09-01T09:54:24.862Z,1.33
2023-09-01T09:56:53.265Z,1.40
2023-09-01T09:59:34.004Z,1.10
2023-09-01T10:02:07.214Z,1.15
2023-09-01T10:04:35.804Z,1.20
2023-09-01T10:07:03.609Z,1.33
2023-09-01T10:09:31.478Z,1.42
2023-09-01T10:11:59.357Z,1.50
2023-09-01T10:14:27.874Z,1.05
2023-09-01T10:16:54.625Z,1.30
2023-09-01T10:19:22.497Z,1.13
2023-09-01T10:21:49.071Z,1.20
2023-09-01T10:24:17.457Z,1.23
2023-09-01T10:26:44.809Z,1.35
2023-09-01T10:29:12.109Z,1.10
2023-09-01T10:31:38.641Z,1.13
2023-09-01T10:34:09.688Z,1.00
2023-09-01T10:36:37.329Z,1.23
2023-09-01T10:39:25.300Z,1.10
2023-09-01T10:42:04.014Z,1.08
2023-09-01T10:44:45.863Z,1.67
2023-09-01T10:47:36.388Z,1.20
2023-09-01T10:50:05.592Z,1.20
2023-09-01T10:52:32.939Z,1.15
2023-09-01T10:55:06.999Z,1.30
2023-09-01T10:57:44.670Z,1.00
2023-09-01T11:00:32.203Z,1.25
2023-09-01T11:03:31.602Z,1.60
2023-09-01T11:06:07.015Z,0.95
2023-09-01T11:08:33.604Z,1.40
2023-09-01T11:11:10.950Z,1.20
2023-09-01T11:13:37.713Z,1.17
2023-09-01T11:16:12.639Z,1.60
2023-09-01T11:18:39.353Z,1.27
2023-09-01T11:21:09.220Z,1.25
2023-09-01T11:23:35.964Z,1.20
2023-09-01T11:26:04.505Z,1.00
2023-09-01T11:28:31.064Z,1.40
2023-09-01T11:31:04.487Z,1.38
2023-09-01T11:33:37.634Z,1.20
2023-09-01T11:36:11.765Z,1.30
2023-09-01T11:38:40.332Z,1.20
2023-09-01T11:41:13.228Z,1.23
2023-09-01T11:43:41.548Z,1.17
2023-09-01T11:46:09.052Z,1.15
2023-09-01T11:48:35.697Z,1.67
2023-09-01T11:51:02.305Z,1.75
2023-09-01T11:53:30.261Z,2.00
2023-09-01T11:56:02.360Z,2.30
2023-09-01T11:58:34.648Z,2.10
2023-09-01T12:01:12.392Z,2.45
2023-09-01T12:03:39.240Z,2.28
2023-09-01T12:06:22.324Z,1.73
2023-09-01T12:08:50.374Z,1.30
2023-09-01T12:11:18.929Z,1.65
2023-09-01T12:13:47.815Z,1.75
2023-09-01T12:16:24.879Z,1.70
2023-09-01T12:18:54.022Z,1.98
2023-09-01T12:21:20.599Z,1.85
2023-09-01T12:23:47.838Z,1.77
2023-09-01T12:26:15.327Z,2.00
2023-09-01T12:28:43.279Z,1.92
2023-09-01T12:31:11.265Z,1.52
2023-09-01T12:33:38.355Z,2.25
2023-09-01T12:36:06.090Z,1.85
2023-09-01T12:38:32.917Z,2.88
2023-09-01T12:40:59.507Z,2.50
2023-09-01T12:43:26.025Z,2.42
2023-09-01T12:45:52.470Z,2.80
2023-09-01T12:48:19.017Z,2.05
2023-09-01T12:50:47.775Z,2.20
2023-09-01T12:53:15.944Z,2.42
2023-09-01T12:55:42.821Z,2.00
2023-09-01T12:58:09.939Z,2.25
2023-09-01T13:00:36.556Z,2.15
2023-09-01T13:03:03.401Z,1.67
2023-09-01T13:05:31.059Z,1.50
2023-09-01T13:07:58.649Z,2.10
2023-09-01T13:10:25.130Z,1.33
2023-09-01T13:12:51.564Z,1.70
2023-09-01T13:15:18.105Z,1.35
2023-09-01T13:17:46.233Z,1.73
2023-09-01T13:20:15.760Z,1.30
2023-09-01T13:22:42.907Z,1.35
2023-09-01T13:25:10.176Z,1.70
2023-09-01T13:27:36.664Z,2.13
2023-09-01T13:30:03.539Z,1.80
2023-09-01T13:32:30.074Z,1.60
2023-09-01T13:34:56.549Z,1.75
2023-09-01T13:37:23.502Z,1.42
2023-09-01T13:39:55.570Z,1.65
2023-09-01T13:42:26.741Z,1.70
2023-09-01T13:44:57.697Z,1.60
2023-09-01T13:47:25.135Z,1.50
2023-09-01T13:49:52.842Z,1.55
2023-09-01T13:52:20.320Z,1.15
2023-09-01T13:54:49.655Z,1.48
2023-09-01T13:57:16.245Z,1.65
2023-09-01T13:59:42.748Z,1.42
2023-09-01T14:02:09.268Z,1.67
2023-09-01T14:04:35.730Z,1.90
2023-09-01T14:07:03.474Z,1.70
2023-09-01T14:09:29.972Z,1.65
2023-09-01T14:11:56.399Z,1.40
2023-09-01T14:14:22.907Z,1.30
2023-09-01T14:16:49.520Z,1.67
2023-09-01T14:19:16.390Z,1.35
2023-09-01T14:21:42.948Z,1.38
2023-09-01T14:24:15.093Z,1.70
2023-09-01T14:26:52.892Z,1.67
2023-09-01T14:29:19.658Z,1.50
2023-09-01T14:31:46.346Z,1.70
2023-09-01T14:34:14.041Z,1.60
2023-09-01T14:36:40.660Z,1.63
2023-09-01T14:39:07.666Z,1.70
2023-09-01T14:41:34.264Z,1.65
2023-09-01T14:44:00.824Z,1.40
2023-09-01T14:46:27.455Z,1.30
2023-09-01T14:48:53.926Z,1.05
2023-09-01T14:51:20.322Z,1.42
2023-09-01T14:53:49.076Z,1.83
2023-09-01T14:56:16.081Z,1.30
2023-09-01T14:58:42.512Z,1.25
2023-09-01T15:01:08.956Z,1.20
2023-09-01T15:03:35.638Z,1.40
2023-09-01T15:06:02.231Z,1.60
2023-09-01T15:08:28.711Z,1.40
2023-09-01T15:10:56.219Z,1.40
2023-09-01T15:13:23.502Z,1.50
2023-09-01T15:15:50.391Z,1.20
2023-09-01T15:18:17.600Z,1.60
2023-09-01T15:20:44.148Z,1.33
2023-09-01T15:23:10.757Z,1.42
2023-09-01T15:25:39.087Z,1.40
2023-09-01T15:28:05.963Z,1.50
2023-09-01T15:30:32.807Z,2.00
2023-09-01T15:32:59.250Z,1.98
2023-09-01T15:35:28.102Z,1.70
2023-09-01T15:37:58.853Z,1.58
2023-09-01T15:40:25.653Z,1.52
2023-09-01T15:42:56.588Z,1.65
2023-09-01T15:45:24.121Z,1.90
2023-09-01T15:47:51.391Z,1.90
2023-09-01T15:50:22.730Z,2.00
2023-09-01T15:52:54.676Z,2.22
2023-09-01T15:55:21.148Z,2.40
2023-09-01T15:57:47.627Z,2.60
2023-09-01T16:00:14.294Z,3.00
2023-09-01T16:02:40.793Z,2.30
2023-09-01T16:05:07.509Z,2.53
2023-09-01T16:07:34.017Z,5.15
2023-09-01T16:10:00.470Z,10.73
2023-09-01T16:12:27.737Z,9.88
2023-09-01T16:14:54.520Z,10.57
2023-09-01T16:17:20.974Z,13.07
2023-09-01T16:19:47.411Z,16.60
2023-09-01T16:22:14.012Z,17.27
2023-09-01T16:24:40.504Z,18.80
2023-09-01T16:27:08.677Z,17.38
2023-09-01T16:29:35.313Z,17.60
2023-09-01T16:32:02.110Z,17.63
2023-09-01T16:34:28.549Z,16.55
2023-09-01T16:36:55.008Z,17.85
2023-09-01T16:39:21.469Z,15.40
2023-09-01T16:41:47.954Z,15.18
2023-09-01T16:44:14.653Z,16.63
2023-09-01T16:46:41.184Z,15.80
2023-09-01T16:49:08.858Z,15.40
2023-09-01T16:51:35.327Z,15.60
2023-09-01T16:54:01.971Z,14.93
2023-09-01T16:56:28.749Z,14.20
2023-09-01T16:58:55.203Z,14.50
2023-09-01T17:01:21.895Z,15.20
2023-09-01T17:03:48.401Z,15.25
2023-09-01T17:06:14.819Z,13.50
2023-09-01T17:08:48.718Z,14.93
2023-09-01T17:11:16.720Z,14.07
2023-09-01T17:13:43.193Z,12.93
2023-09-01T17:16:09.739Z,13.70
2023-09-01T17:18:36.772Z,14.48
2023-09-01T17:21:05.505Z,12.38
2023-09-01T17:23:31.955Z,12.13
2023-09-01T17:25:58.744Z,15.25
2023-09-01T17:28:25.166Z,13.90
2023-09-01T17:30:51.745Z,12.80
2023-09-01T17:33:18.518Z,13.02
2023-09-01T17:35:45.625Z,11.73
2023-09-01T17:38:12.592Z,11.93
2023-09-01T17:40:43.035Z,12.45
2023-09-01T17:45:36.289Z,10.88
2023-09-01T17:48:03.089Z,10.82
2023-09-01T17:50:29.590Z,10.77
2023-09-01T17:52:55.991Z,11.93
2023-09-01T17:55:22.604Z,11.85
2023-09-01T17:57:49.153Z,11.25
2023-09-01T18:00:15.813Z,11.73
2023-09-01T18:02:42.636Z,11.98
2023-09-01T18:05:09.854Z,12.07
2023-09-01T18:07:36.372Z,10.77
2023-09-01T18:10:03.558Z,11.02
2023-09-01T18:12:30.180Z,10.93
2023-09-01T18:14:56.878Z,10.48
2023-09-01T18:17:23.789Z,10.73
2023-09-01T18:19:50.496Z,8.55
2023-09-01T18:22:16.936Z,11.20
2023-09-01T18:24:43.380Z,10.13
2023-09-01T18:27:24.670Z,8.68
2023-09-01T18:29:51.642Z,9.95
2023-09-01T18:32:18.120Z,10.13
2023-09-01T18:34:45.054Z,11.02
2023-09-01T18:37:17.642Z,9.75
2023-09-01T18:39:44.129Z,10.65
2023-09-01T18:42:34.731Z,9.65
2023-09-01T18:45:02.786Z,9.02
2023-09-01T18:47:29.697Z,9.07
2023-09-01T18:49:56.369Z,8.05
2023-09-01T18:52:22.921Z,8.93
2023-09-01T18:54:49.297Z,10.25
2023-09-01T18:57:16.499Z,8.75
2023-09-01T18:59:43.247Z,9.70
2023-09-01T19:02:46.853Z,9.27
2023-09-01T19:05:33.828Z,8.60
2023-09-01T19:08:22.952Z,8.70
2023-09-01T19:10:51.305Z,8.07
2023-09-01T19:13:20.225Z,9.40
2023-09-01T19:15:58.164Z,8.77
2023-09-01T19:18:31.557Z,8.00
2023-09-01T19:21:01.549Z,8.70
2023-09-01T19:23:34.705Z,9.00
2023-09-01T19:26:04.647Z,8.55
2023-09-01T19:28:37.848Z,8.25
2023-09-01T19:31:07.384Z,9.27
2023-09-01T19:33:36.424Z,8.88
2023-09-01T19:36:03.430Z,9.02
2023-09-01T19:38:30.470Z,9.27
2023-09-01T19:40:59.570Z,8.30
2023-09-01T19:43:27.469Z,8.63
2023-09-01T19:45:55.094Z,8.25
2023-09-01T19:48:22.648Z,7.65
2023-09-01T19:50:49.378Z,8.40
2023-09-01T19:53:27.499Z,8.68
2023-09-01T19:56:01.658Z,8.93
2023-09-01T19:58:31.652Z,8.43
2023-09-01T20:00:59.481Z,8.25
2023-09-01T20:03:30.054Z,7.78
2023-09-01T20:05:56.871Z,9.30
2023-09-01T20:08:25.864Z,7.38
2023-09-01T20:10:52.272Z,8.18
2023-09-01T20:13:18.875Z,8.60
2023-09-01T20:15:49.157Z,8.75
2023-09-01T20:18:18.271Z,8.30
2023-09-01T20:20:47.957Z,8.73
2023-09-01T20:23:14.934Z,8.40
2023-09-01T20:25:43.735Z,7.68
2023-09-01T20:28:11.347Z,8.43
2023-09-01T20:30:37.893Z,7.30
2023-09-01T20:33:04.820Z,7.68
2023-09-01T20:35:31.405Z,9.00
2023-09-01T20:37:57.985Z,8.25
2023-09-01T20:40:24.790Z,7.88
2023-09-01T20:42:53.429Z,7.93
2023-09-01T20:45:19.950Z,7.68
2023-09-01T20:47:46.449Z,7.47
2023-09-01T20:50:12.918Z,8.18
2023-09-01T20:52:40.591Z,7.90
2023-09-01T20:55:09.266Z,7.38
2023-09-01T20:57:40.720Z,9.45
2023-09-01T21:00:09.610Z,8.60
2023-09-01T21:02:36.176Z,9.63
2023-09-01T21:05:05.616Z,7.45
2023-09-01T21:07:36.524Z,7.70
2023-09-01T21:10:05.133Z,7.53
2023-09-01T21:12:31.562Z,7.85
2023-09-01T21:14:58.807Z,7.43
2023-09-01T21:17:25.897Z,6.80
2023-09-01T21:19:53.026Z,7.53
2023-09-01T21:22:20.365Z,7.03
2023-09-01T21:24:46.907Z,7.10
2023-09-01T21:27:13.541Z,7.05
2023-09-01T21:29:40.404Z,7.75
2023-09-01T21:32:07.261Z,6.72
2023-09-01T21:34:34.165Z,6.45
2023-09-01T21:37:01.834Z,7.45
2023-09-01T21:39:28.911Z,8.02
2023-09-01T21:41:55.303Z,6.93
2023-09-01T21:44:21.920Z,7.28
2023-09-01T21:46:48.354Z,6.75
2023-09-01T21:49:15.986Z,6.32
2023-09-01T21:51:43.538Z,7.70
2023-09-01T21:54:09.945Z,7.32
2023-09-01T21:56:36.381Z,6.88
2023-09-01T21:59:04.599Z,7.18
2023-09-01T22:01:33.313Z,7.38
2023-09-01T22:04:01.149Z,7.10
2023-09-01T22:06:27.814Z,7.55
2023-09-01T22:08:54.245Z,6.78
2023-09-01T22:11:20.712Z,7.35
2023-09-01T22:13:48.078Z,8.05
2023-09-01T22:16:14.583Z,7.68
2023-09-01T22:18:41.088Z,8.10
2023-09-01T22:21:08.887Z,7.38
2023-09-01T22:23:35.376Z,6.72
2023-09-01T22:26:02.302Z,6.63
2023-09-01T22:28:29.825Z,6.20
2023-09-01T22:30:56.565Z,6.57
2023-09-01T22:33:23.115Z,6.82
2023-09-01T22:35:49.622Z,6.85
2023-09-01T22:38:18.448Z,6.38
2023-09-01T22:40:46.051Z,6.05
2023-09-01T22:43:13.605Z,7.05
2023-09-01T22:45:40.056Z,7.05
2023-09-01T22:48:06.766Z,6.53
2023-09-01T22:50:33.248Z,7.43
2023-09-01T22:52:59.633Z,6.70
2023-09-01T22:55:28.726Z,7.07
2023-09-01T22:57:56.578Z,7.18
2023-09-01T23:00:23.523Z,6.47
2023-09-01T23:02:50.039Z,7.05
2023-09-01T23:05:16.679Z,6.72
2023-09-01T23:07:43.171Z,7.15
2023-09-01T23:10:10.476Z,6.50
2023-09-01T23:12:36.911Z,6.97
2023-09-01T23:15:04.678Z,7.32
2023-09-01T23:17:32.517Z,5.88
2023-09-01T23:19:58.977Z,6.60
2023-09-01T23:22:27.757Z,7.18
2023-09-01T23:24:54.412Z,6.38
2023-09-01T23:27:20.941Z,6.20
2023-09-01T23:29:47.384Z,6.70
2023-09-01T23:32:13.866Z,7.25
2023-09-01T23:34:40.894Z,6.60
2023-09-01T23:37:07.656Z,6.78
2023-09-01T23:39:34.385Z,5.85
2023-09-01T23:42:00.931Z,6.90
2023-09-01T23:44:27.508Z,6.32
2023-09-01T23:46:54.167Z,6.72
2023-09-01T23:49:20.750Z,6.03
2023-09-01T23:51:47.242Z,6.55
2023-09-01T23:54:13.782Z,7.07
2023-09-01T23:56:40.298Z,6.78
2023-09-01T23:59:06.839Z,6.55
